createdAt,value
2018-08-16T00:01:15.526Z,3.30
2018-08-16T00:03:46.349Z,3.03
2018-08-16T00:06:17.249Z,3.53
2018-08-16T00:08:48.090Z,3.97
2018-08-16T00:11:18.953Z,3.90
2018-08-16T00:13:49.722Z,3.20
2018-08-16T00:16:20.562Z,3.83
2018-08-16T00:18:51.342Z,3.47
2018-08-16T00:21:22.181Z,4.27
2018-08-16T00:23:53.061Z,3.80
2018-08-16T00:26:23.889Z,3.40
2018-08-16T00:28:54.688Z,4.00
2018-08-16T00:31:25.518Z,2.97
2018-08-16T00:33:56.342Z,6.27
2018-08-16T00:36:27.150Z,4.57
2018-08-16T00:38:57.921Z,3.10
2018-08-16T00:41:28.855Z,3.63
2018-08-16T00:43:59.649Z,2.80
2018-08-16T00:46:30.509Z,3.13
2018-08-16T00:49:01.290Z,3.00
2018-08-16T00:51:32.411Z,3.23
2018-08-16T00:54:03.192Z,2.87
2018-08-16T00:56:34.002Z,2.70
2018-08-16T00:59:05.121Z,3.77
2018-08-16T01:01:36.029Z,2.70
2018-08-16T01:04:07.108Z,3.50
2018-08-16T01:06:38.010Z,3.50
2018-08-16T01:09:11.246Z,2.50
2018-08-16T01:11:41.987Z,3.00
2018-08-16T01:14:12.726Z,3.00
2018-08-16T01:16:44.009Z,3.20
2018-08-16T01:19:14.799Z,2.60
2018-08-16T01:21:45.908Z,3.30
2018-08-16T01:24:16.686Z,3.20
2018-08-16T01:26:47.779Z,4.13
2018-08-16T01:29:18.590Z,4.60
2018-08-16T01:31:49.520Z,2.97
2018-08-16T01:34:20.806Z,3.10
2018-08-16T01:36:51.562Z,3.03
2018-08-16T01:39:22.391Z,4.93
2018-08-16T01:41:53.217Z,3.77
2018-08-16T01:44:24.359Z,3.50
2018-08-16T01:46:55.210Z,3.67
2018-08-16T01:49:35.867Z,3.50
2018-08-16T01:52:07.229Z,3.23
2018-08-16T01:54:37.970Z,3.13
2018-08-16T01:57:08.821Z,4.63
2018-08-16T01:59:39.592Z,2.90
2018-08-16T02:02:10.618Z,3.20
2018-08-16T02:04:41.398Z,3.40
2018-08-16T02:07:12.307Z,2.87
2018-08-16T02:09:43.019Z,3.13
2018-08-16T02:12:13.767Z,3.20
2018-08-16T02:14:44.564Z,3.00
2018-08-16T02:17:15.367Z,2.80
2018-08-16T02:19:46.127Z,3.00
2018-08-16T02:22:16.961Z,2.87
2018-08-16T02:24:47.690Z,3.00
2018-08-16T02:27:18.461Z,3.10
2018-08-16T02:29:49.148Z,3.27
2018-08-16T02:32:19.927Z,3.63
2018-08-16T02:34:50.727Z,3.20
2018-08-16T02:37:21.529Z,2.90
2018-08-16T02:39:52.279Z,4.10
2018-08-16T02:42:23.031Z,3.43
2018-08-16T02:44:53.738Z,3.67
2018-08-16T02:47:24.743Z,3.87
2018-08-16T02:49:55.486Z,3.43
2018-08-16T02:52:26.298Z,3.77
2018-08-16T02:54:56.998Z,3.20
2018-08-16T02:57:27.782Z,3.70
2018-08-16T02:59:58.507Z,3.43
2018-08-16T03:02:30.265Z,3.97
2018-08-16T03:05:00.966Z,3.27
2018-08-16T03:07:31.766Z,5.20
2018-08-16T03:10:02.517Z,3.20
2018-08-16T03:12:33.300Z,4.07
2018-08-16T03:15:04.061Z,3.20
2018-08-16T03:17:34.869Z,3.63
2018-08-16T03:20:06.175Z,3.57
2018-08-16T03:22:37.162Z,3.40
2018-08-16T03:25:08.046Z,3.43
2018-08-16T03:27:39.111Z,3.33
2018-08-16T03:30:10.118Z,3.93
2018-08-16T03:32:40.885Z,3.40
2018-08-16T03:35:11.641Z,5.50
2018-08-16T03:37:42.427Z,5.10
2018-08-16T03:40:13.166Z,3.50
2018-08-16T03:42:44.011Z,3.40
2018-08-16T03:45:14.703Z,3.43
2018-08-16T03:47:45.566Z,4.83
2018-08-16T03:50:16.264Z,3.60
2018-08-16T03:52:47.007Z,3.80
2018-08-16T03:55:17.739Z,4.30
2018-08-16T03:57:48.679Z,3.90
2018-08-16T04:00:19.439Z,4.80
2018-08-16T04:02:50.198Z,3.97
2018-08-16T04:05:20.967Z,3.87
2018-08-16T04:07:51.726Z,3.73
2018-08-16T04:10:22.527Z,4.20
2018-08-16T04:12:53.259Z,4.00
2018-08-16T04:15:23.992Z,3.57
2018-08-16T04:17:54.786Z,3.30
2018-08-16T04:20:25.544Z,3.60
2018-08-16T04:22:56.327Z,3.47
2018-08-16T04:25:27.108Z,3.43
2018-08-16T04:27:57.866Z,3.60
2018-08-16T04:30:28.633Z,3.97
2018-08-16T04:32:59.458Z,4.10
2018-08-16T04:35:30.257Z,4.20
2018-08-16T04:38:01.099Z,3.67
2018-08-16T04:40:31.958Z,4.00
2018-08-16T04:43:02.686Z,3.00
2018-08-16T04:45:33.386Z,3.60
2018-08-16T04:48:04.365Z,3.10
2018-08-16T04:50:35.094Z,3.57
2018-08-16T04:53:06.018Z,6.90
2018-08-16T04:55:37.038Z,4.60
2018-08-16T04:58:08.370Z,4.07
2018-08-16T05:00:39.134Z,4.50
2018-08-16T05:03:10.086Z,4.30
2018-08-16T05:05:40.781Z,4.60
2018-08-16T05:08:11.649Z,5.07
2018-08-16T05:10:42.368Z,4.00
2018-08-16T05:13:13.338Z,5.63
2018-08-16T05:15:44.449Z,5.70
2018-08-16T05:18:15.187Z,6.00
2018-08-16T05:20:45.866Z,4.20
2018-08-16T05:23:16.766Z,4.10
2018-08-16T05:25:47.746Z,3.60
2018-08-16T05:28:18.938Z,3.70
2018-08-16T05:30:49.740Z,5.37
2018-08-16T05:33:20.440Z,3.23
2018-08-16T05:35:51.417Z,3.57
2018-08-16T05:38:22.378Z,6.07
2018-08-16T05:40:53.243Z,3.63
2018-08-16T05:43:24.356Z,3.57
2018-08-16T05:45:54.987Z,4.53
2018-08-16T05:48:26.258Z,4.87
2018-08-16T05:50:57.307Z,4.03
2018-08-16T05:53:28.087Z,5.13
2018-08-16T05:55:58.985Z,4.37
2018-08-16T05:58:29.905Z,4.27
2018-08-16T06:01:01.110Z,4.23
2018-08-16T06:03:32.897Z,4.90
2018-08-16T06:06:03.664Z,4.93
2018-08-16T06:08:34.819Z,5.23
2018-08-16T06:11:06.412Z,3.73
2018-08-16T06:13:37.581Z,4.50
2018-08-16T06:16:08.562Z,4.03
2018-08-16T06:18:39.560Z,6.30
2018-08-16T06:21:10.426Z,4.47
2018-08-16T06:23:41.508Z,5.33
2018-08-16T06:26:12.210Z,4.40
2018-08-16T06:28:42.985Z,3.70
2018-08-16T06:31:14.182Z,5.80
2018-08-16T06:33:44.998Z,6.63
2018-08-16T06:36:15.919Z,3.60
2018-08-16T06:38:46.716Z,5.00
2018-08-16T06:41:17.518Z,4.30
2018-08-16T06:43:48.355Z,3.40
2018-08-16T06:46:19.253Z,3.90
2018-08-16T06:48:50.046Z,3.30
2018-08-16T06:51:21.150Z,3.20
2018-08-16T06:53:52.105Z,3.60
2018-08-16T06:56:23.132Z,4.73
2018-08-16T06:58:53.929Z,3.70
2018-08-16T07:01:24.780Z,3.63
2018-08-16T07:03:55.788Z,3.23
2018-08-16T07:06:26.546Z,3.33
2018-08-16T07:08:57.287Z,3.47
2018-08-16T07:11:28.355Z,3.23
2018-08-16T07:13:59.441Z,2.77
2018-08-16T07:16:30.227Z,2.97
2018-08-16T07:19:01.019Z,3.67
2018-08-16T07:21:31.759Z,5.23
2018-08-16T07:24:02.557Z,3.93
2018-08-16T07:26:33.530Z,3.43
2018-08-16T07:29:05.199Z,4.20
2018-08-16T07:31:36.606Z,2.90
2018-08-16T07:34:08.278Z,3.67
2018-08-16T07:36:39.055Z,3.63
2018-08-16T07:39:11.662Z,4.83
2018-08-16T07:41:42.487Z,3.00
2018-08-16T07:44:13.247Z,2.90
2018-08-16T07:46:44.445Z,6.27
2018-08-16T07:49:15.140Z,6.93
2018-08-16T07:51:46.270Z,6.30
2018-08-16T07:54:17.086Z,10.57
2018-08-16T07:56:48.027Z,18.90
2018-08-16T07:59:19.336Z,21.03
2018-08-16T08:01:50.459Z,15.13
2018-08-16T08:04:21.200Z,3.97
2018-08-16T08:06:51.939Z,7.07
2018-08-16T08:09:23.124Z,3.00
2018-08-16T08:11:53.946Z,2.90
2018-08-16T08:14:24.677Z,4.17
2018-08-16T08:16:55.384Z,3.53
2018-08-16T08:19:26.801Z,2.73
2018-08-16T08:21:58.328Z,3.57
2018-08-16T08:24:29.321Z,2.60
2018-08-16T08:27:00.947Z,2.77
2018-08-16T08:29:31.745Z,2.97
2018-08-16T08:32:02.445Z,5.03
2018-08-16T08:34:33.356Z,3.10
2018-08-16T08:37:20.920Z,3.60
2018-08-16T08:39:51.648Z,2.50
2018-08-16T08:42:22.707Z,5.33
2018-08-16T08:44:53.714Z,3.20
2018-08-16T08:47:28.975Z,2.90
2018-08-16T08:50:00.526Z,2.70
2018-08-16T08:52:32.072Z,2.93
2018-08-16T08:55:19.903Z,2.77
2018-08-16T08:58:11.005Z,2.60
2018-08-16T09:00:41.659Z,2.70
2018-08-16T09:03:12.463Z,4.43
2018-08-16T09:05:43.359Z,2.80
2018-08-16T09:08:14.267Z,2.63
2018-08-16T09:12:06.135Z,2.90
2018-08-16T09:14:53.308Z,2.80
2018-08-16T09:17:24.099Z,2.63
2018-08-16T09:19:55.382Z,2.97
2018-08-16T09:22:26.280Z,2.70
2018-08-16T09:24:57.510Z,2.77
2018-08-16T09:27:28.288Z,2.50
2018-08-16T09:31:22.819Z,2.80
2018-08-16T09:34:10.147Z,2.67
2018-08-16T09:36:49.328Z,2.50
2018-08-16T09:39:24.866Z,2.67
2018-08-16T09:41:55.849Z,2.63
2018-08-16T09:44:26.808Z,2.50
2018-08-16T09:47:14.799Z,2.50
2018-08-16T09:49:50.607Z,2.60
2018-08-16T09:52:22.310Z,2.57
2018-08-16T09:54:53.107Z,2.37
2018-08-16T09:57:24.126Z,3.03
2018-08-16T09:59:54.838Z,2.70
2018-08-16T10:02:25.867Z,2.37
2018-08-16T10:04:57.566Z,2.50
2018-08-16T10:07:28.899Z,2.80
2018-08-16T10:09:59.666Z,2.40
2018-08-16T10:12:30.386Z,2.23
2018-08-16T10:15:01.270Z,3.33
2018-08-16T10:17:31.941Z,2.60
2018-08-16T10:20:02.748Z,5.10
2018-08-16T10:22:33.540Z,2.37
2018-08-16T10:25:04.688Z,2.60
2018-08-16T10:27:35.697Z,3.90
2018-08-16T10:30:08.952Z,2.40
2018-08-16T10:32:39.759Z,2.23
2018-08-16T10:35:12.281Z,2.10
2018-08-16T10:37:43.579Z,1.90
2018-08-16T10:40:14.601Z,2.77
2018-08-16T10:42:45.389Z,1.90
2018-08-16T10:45:16.461Z,2.07
2018-08-16T10:47:47.462Z,1.90
2018-08-16T10:50:18.412Z,2.43
2018-08-16T10:52:49.658Z,1.93
2018-08-16T10:55:20.454Z,1.83
2018-08-16T10:57:51.477Z,2.13
2018-08-16T11:00:22.350Z,1.70
2018-08-16T11:02:53.382Z,2.07
2018-08-16T11:05:24.726Z,2.50
2018-08-16T11:07:55.517Z,2.03
2018-08-16T11:10:26.249Z,3.60
2018-08-16T11:12:57.185Z,1.67
2018-08-16T11:15:28.663Z,2.07
2018-08-16T11:17:59.860Z,1.80
2018-08-16T11:20:30.823Z,2.33
2018-08-16T11:23:01.746Z,1.90
2018-08-16T11:25:33.386Z,1.93
2018-08-16T11:28:05.783Z,2.63
2018-08-16T11:30:37.069Z,2.03
2018-08-16T11:33:08.823Z,5.17
2018-08-16T11:35:40.105Z,1.70
2018-08-16T11:38:11.470Z,1.80
2018-08-16T11:40:42.149Z,1.53
2018-08-16T11:43:13.018Z,2.00
2018-08-16T11:45:44.582Z,1.60
2018-08-16T11:48:17.087Z,1.57
2018-08-16T11:50:48.689Z,1.40
2018-08-16T11:53:19.943Z,2.90
2018-08-16T11:55:51.783Z,2.90
2018-08-16T11:58:23.543Z,3.27
2018-08-16T12:00:54.871Z,2.33
2018-08-16T12:03:25.951Z,1.77
2018-08-16T12:05:56.741Z,1.80
2018-08-16T12:08:27.718Z,1.37
2018-08-16T12:10:58.890Z,1.50
2018-08-16T12:13:30.045Z,2.17
2018-08-16T12:16:01.051Z,1.40
2018-08-16T12:18:32.026Z,2.80
2018-08-16T12:21:03.504Z,2.00
2018-08-16T12:23:34.738Z,3.07
2018-08-16T12:26:06.344Z,1.40
2018-08-16T12:28:37.699Z,2.60
2018-08-16T12:31:09.235Z,1.50
2018-08-16T12:33:40.503Z,2.00
2018-08-16T12:36:12.022Z,1.50
2018-08-16T12:38:43.471Z,1.50
2018-08-16T12:41:14.820Z,1.67
2018-08-16T12:43:45.790Z,1.97
2018-08-16T12:46:17.286Z,1.73
2018-08-16T12:48:48.662Z,1.80
2018-08-16T12:51:20.993Z,2.00
2018-08-16T12:53:52.592Z,1.60
2018-08-16T12:56:23.632Z,2.20
2018-08-16T12:58:54.762Z,2.03
2018-08-16T13:01:26.190Z,1.40
2018-08-16T13:03:57.462Z,1.57
2018-08-16T13:06:28.750Z,1.63
2018-08-16T13:09:00.345Z,1.70
2018-08-16T13:11:31.744Z,2.40
2018-08-16T13:14:02.991Z,1.70
2018-08-16T13:16:34.583Z,1.67
2018-08-16T13:19:05.943Z,1.50
2018-08-16T13:21:37.311Z,1.60
2018-08-16T13:24:08.434Z,1.40
2018-08-16T13:26:40.414Z,1.40
2018-08-16T13:29:11.550Z,1.60
2018-08-16T13:31:42.873Z,1.70
2018-08-16T13:34:14.023Z,1.40
2018-08-16T13:36:45.233Z,1.50
2018-08-16T13:39:16.503Z,1.83
2018-08-16T13:41:47.544Z,3.33
2018-08-16T13:44:18.910Z,1.73
2018-08-16T13:46:49.780Z,2.63
2018-08-16T13:49:21.546Z,1.60
2018-08-16T13:51:52.983Z,1.70
2018-08-16T13:54:23.986Z,1.40
2018-08-16T13:56:55.303Z,1.60
2018-08-16T13:59:26.910Z,1.43
2018-08-16T14:01:58.262Z,1.60
2018-08-16T14:04:29.550Z,1.63
2018-08-16T14:07:01.141Z,1.47
2018-08-16T14:09:32.582Z,1.57
2018-08-16T14:12:03.788Z,1.70
2018-08-16T14:14:34.762Z,3.20
2018-08-16T14:17:06.587Z,1.30
2018-08-16T14:19:37.950Z,1.83
2018-08-16T14:22:09.390Z,2.47
2018-08-16T14:24:40.983Z,2.07
2018-08-16T14:27:12.433Z,3.13
2018-08-16T14:29:44.193Z,3.93
2018-08-16T14:32:15.258Z,1.67
2018-08-16T14:34:46.388Z,1.57
2018-08-16T14:37:17.711Z,3.03
2018-08-16T14:39:48.994Z,2.27
2018-08-16T14:42:20.345Z,1.70
2018-08-16T14:44:51.866Z,1.77
2018-08-16T14:47:23.071Z,2.27
2018-08-16T14:49:54.752Z,2.93
2018-08-16T14:52:26.517Z,1.37
2018-08-16T14:54:57.704Z,1.50
2018-08-16T14:57:28.983Z,2.93
2018-08-16T15:00:00.333Z,1.57
2018-08-16T15:02:31.290Z,1.50
2018-08-16T15:05:02.168Z,3.63
2018-08-16T15:07:33.698Z,2.27
2018-08-16T15:10:05.489Z,1.50
2018-08-16T15:12:36.926Z,1.67
2018-08-16T15:15:07.691Z,1.73
2018-08-16T15:17:38.535Z,1.57
2018-08-16T15:20:09.531Z,1.50
2018-08-16T15:22:40.425Z,1.93
2018-08-16T15:25:11.358Z,1.60
2018-08-16T15:27:42.211Z,2.97
2018-08-16T15:30:12.982Z,1.73
2018-08-16T15:32:44.062Z,1.50
2018-08-16T15:35:14.911Z,1.40
2018-08-16T15:37:45.754Z,1.10
2018-08-16T15:40:16.604Z,1.40
2018-08-16T15:42:47.479Z,1.70
2018-08-16T15:45:18.393Z,1.70
2018-08-16T15:47:49.228Z,2.77
2018-08-16T15:50:20.284Z,1.70
2018-08-16T15:52:51.119Z,1.87
2018-08-16T15:55:21.942Z,1.63
2018-08-16T15:57:52.823Z,1.80
2018-08-16T16:00:24.406Z,1.70
2018-08-16T16:02:55.252Z,1.47
2018-08-16T16:05:26.302Z,1.63
2018-08-16T16:07:57.127Z,1.77
2018-08-16T16:10:28.052Z,1.70
2018-08-16T16:12:59.022Z,2.27
2018-08-16T16:15:29.903Z,2.10
2018-08-16T16:18:00.791Z,1.70
2018-08-16T16:20:31.711Z,2.03
2018-08-16T16:23:02.539Z,1.50
2018-08-16T16:25:33.482Z,1.73
2018-08-16T16:28:04.352Z,1.50
2018-08-16T16:30:35.291Z,3.50
2018-08-16T16:33:06.171Z,1.80
2018-08-16T16:35:37.031Z,2.63
2018-08-16T16:38:08.121Z,1.93
2018-08-16T16:40:39.167Z,1.87
2018-08-16T16:43:10.513Z,1.75
2018-08-16T16:45:41.513Z,1.80
2018-08-16T16:48:12.774Z,1.60
2018-08-16T16:50:43.831Z,2.00
2018-08-16T16:53:14.703Z,2.03
2018-08-16T16:55:45.783Z,1.57
2018-08-16T16:58:16.743Z,2.93
2018-08-16T17:00:47.640Z,1.62
2018-08-16T17:03:18.532Z,1.57
2018-08-16T17:05:50.123Z,4.30
2018-08-16T17:08:21.038Z,2.73
2018-08-16T17:10:52.174Z,2.70
2018-08-16T17:13:23.174Z,1.90
2018-08-16T17:15:54.063Z,2.53
2018-08-16T17:18:24.925Z,2.80
2018-08-16T17:20:55.791Z,1.90
2018-08-16T17:23:26.623Z,2.60
2018-08-16T17:25:57.494Z,2.03
2018-08-16T17:28:28.481Z,2.83
2018-08-16T17:30:59.402Z,2.13
2018-08-16T17:33:30.380Z,1.70
2018-08-16T17:36:04.603Z,2.10
2018-08-16T17:38:38.645Z,2.07
2018-08-16T17:41:10.507Z,2.23
2018-08-16T17:43:41.329Z,1.90
2018-08-16T17:46:12.237Z,2.57
2018-08-16T17:48:43.119Z,2.67
2018-08-16T17:51:13.938Z,2.30
2018-08-16T17:53:44.698Z,2.40
2018-08-16T17:56:15.526Z,2.50
2018-08-16T17:58:46.650Z,2.20
2018-08-16T18:01:17.454Z,2.57
2018-08-16T18:03:48.614Z,8.93
2018-08-16T18:06:19.493Z,2.43
2018-08-16T18:08:51.404Z,3.27
2018-08-16T18:11:22.243Z,3.27
2018-08-16T18:13:53.084Z,2.33
2018-08-16T18:16:24.409Z,3.77
2018-08-16T18:18:55.680Z,2.37
2018-08-16T18:21:26.882Z,2.17
2018-08-16T18:23:58.002Z,2.43
2018-08-16T18:26:29.403Z,3.23
2018-08-16T18:29:00.638Z,4.40
2018-08-16T18:31:32.054Z,2.50
2018-08-16T18:34:02.935Z,2.43
2018-08-16T18:36:33.908Z,2.50
2018-08-16T18:39:06.173Z,2.03
2018-08-16T18:41:40.329Z,4.23
2018-08-16T18:44:12.206Z,2.57
2018-08-16T18:46:43.434Z,3.37
2018-08-16T18:49:14.525Z,3.07
2018-08-16T18:51:45.385Z,4.70
2018-08-16T18:54:16.320Z,2.87
2018-08-16T18:56:47.423Z,2.40
2018-08-16T18:59:18.287Z,2.60
2018-08-16T19:01:49.181Z,2.13
2018-08-16T19:04:20.272Z,2.37
2018-08-16T19:06:54.874Z,4.03
2018-08-16T19:09:26.642Z,2.53
2018-08-16T19:11:57.460Z,2.73
2018-08-16T19:14:28.195Z,3.83
2018-08-16T19:16:59.208Z,2.70
2018-08-16T19:19:33.395Z,2.40
2018-08-16T19:22:04.741Z,2.40
2018-08-16T19:24:35.439Z,4.17
2018-08-16T19:27:06.571Z,2.67
2018-08-16T19:29:37.215Z,2.80
2018-08-16T19:32:07.973Z,2.40
2018-08-16T19:34:38.982Z,2.37
2018-08-16T19:37:10.676Z,2.63
2018-08-16T19:39:42.299Z,2.60
2018-08-16T19:42:13.413Z,2.67
2018-08-16T19:44:44.265Z,2.33
2018-08-16T19:47:16.251Z,2.83
2018-08-16T19:49:47.871Z,3.73
2018-08-16T19:52:19.933Z,2.40
2018-08-16T19:54:50.979Z,3.30
2018-08-16T19:57:21.951Z,2.57
2018-08-16T19:59:52.760Z,3.53
2018-08-16T20:02:23.719Z,3.83
2018-08-16T20:04:55.634Z,2.57
2018-08-16T20:07:27.057Z,2.63
2018-08-16T20:09:58.495Z,2.73
2018-08-16T20:12:29.574Z,3.37
2018-08-16T20:15:00.454Z,3.00
2018-08-16T20:17:32.443Z,3.23
2018-08-16T20:20:03.471Z,3.20
2018-08-16T20:22:34.403Z,2.60
2018-08-16T20:25:06.123Z,3.57
2018-08-16T20:27:36.951Z,3.17
2018-08-16T20:30:08.104Z,3.87
2018-08-16T20:32:39.103Z,2.70
2018-08-16T20:35:09.953Z,3.00
2018-08-16T20:37:41.593Z,3.00
2018-08-16T20:40:12.555Z,5.93
2018-08-16T20:42:43.632Z,2.70
2018-08-16T20:45:14.408Z,2.90
2018-08-16T20:47:45.410Z,2.97
2018-08-16T20:50:16.304Z,4.37
2018-08-16T20:52:47.210Z,3.03
2018-08-16T20:55:18.000Z,4.50
2018-08-16T20:57:49.071Z,3.23
2018-08-16T21:00:19.874Z,3.63
2018-08-16T21:02:50.691Z,5.07
2018-08-16T21:05:21.412Z,3.70
2018-08-16T21:07:52.237Z,3.83
2018-08-16T21:10:23.372Z,3.90
2018-08-16T21:12:54.183Z,3.57
2018-08-16T21:15:25.211Z,4.03
2018-08-16T21:17:56.071Z,5.00
2018-08-16T21:20:26.944Z,3.80
2018-08-16T21:22:57.804Z,4.50
2018-08-16T21:25:28.571Z,3.50
2018-08-16T21:27:59.447Z,3.20
2018-08-16T21:30:30.257Z,3.43
2018-08-16T21:33:01.051Z,3.50
2018-08-16T21:35:31.803Z,3.77
2018-08-16T21:38:02.603Z,3.50
2018-08-16T21:40:33.497Z,3.47
2018-08-16T21:43:04.505Z,5.70
2018-08-16T21:45:35.242Z,4.10
2018-08-16T21:48:06.191Z,3.87
2018-08-16T21:50:36.922Z,3.20
2018-08-16T21:53:07.754Z,3.37
2018-08-16T21:55:38.510Z,3.47
2018-08-16T21:58:09.311Z,4.00
2018-08-16T22:00:51.153Z,3.03
2018-08-16T22:03:24.092Z,3.93
2018-08-16T22:06:06.791Z,4.17
2018-08-16T22:08:50.070Z,3.47
2018-08-16T22:11:21.152Z,3.83
2018-08-16T22:13:51.940Z,3.57
2018-08-16T22:16:22.623Z,4.63
2018-08-16T22:18:53.382Z,3.27
2018-08-16T22:21:24.150Z,4.63
2018-08-16T22:23:55.150Z,3.37
2018-08-16T22:26:26.051Z,3.23
2018-08-16T22:28:56.931Z,2.90
2018-08-16T22:31:27.690Z,3.70
2018-08-16T22:33:58.555Z,3.40
2018-08-16T22:36:29.359Z,3.17
2018-08-16T22:39:00.183Z,4.63
2018-08-16T22:41:30.950Z,3.47
2018-08-16T22:44:01.662Z,2.90
2018-08-16T22:46:32.434Z,7.77
2018-08-16T22:49:03.182Z,2.90
2018-08-16T22:51:33.958Z,3.70
2018-08-16T22:54:04.796Z,3.17
2018-08-16T22:56:35.490Z,2.83
2018-08-16T22:59:06.851Z,3.97
2018-08-16T23:01:37.593Z,3.10
2018-08-16T23:04:08.422Z,2.80
2018-08-16T23:06:39.082Z,3.10
2018-08-16T23:09:09.816Z,3.20
2018-08-16T23:11:40.570Z,2.97
2018-08-16T23:14:11.315Z,3.37
2018-08-16T23:16:41.991Z,3.07
2018-08-16T23:19:12.750Z,3.17
2018-08-16T23:21:43.512Z,3.87
2018-08-16T23:24:14.291Z,3.30
2018-08-16T23:26:45.093Z,3.00
2018-08-16T23:29:15.983Z,2.87
2018-08-16T23:31:46.659Z,3.60
2018-08-16T23:34:17.662Z,2.83
2018-08-16T23:36:48.365Z,3.20
2018-08-16T23:39:19.075Z,2.97
2018-08-16T23:41:49.766Z,2.90
2018-08-16T23:44:20.476Z,2.97
2018-08-16T23:46:51.270Z,2.70
2018-08-16T23:49:22.050Z,2.90
2018-08-16T23:51:52.824Z,3.03
2018-08-16T23:54:23.602Z,3.47
2018-08-16T23:56:54.302Z,3.43
2018-08-16T23:59:25.001Z,3.40
